createdAt,value
2022-07-27T00:01:34.368Z,100899.75
2022-07-27T00:05:39.756Z,100897.31
2022-07-27T00:09:42.799Z,100898.06
2022-07-27T00:13:46.230Z,100898.16
2022-07-27T00:17:51.167Z,100896.72
2022-07-27T00:21:54.621Z,100904.16
2022-07-27T00:25:57.864Z,100899.56
2022-07-27T00:30:00.961Z,100901.09
2022-07-27T00:34:05.387Z,100891.59
2022-07-27T00:38:08.578Z,100900.13
2022-07-27T00:42:11.773Z,100897.84
2022-07-27T00:46:15.700Z,100900.78
2022-07-27T00:50:20.164Z,100900.22
2022-07-27T00:54:24.181Z,100898.66
2022-07-27T00:58:28.207Z,100896.81
2022-07-27T01:02:32.164Z,100899.28
2022-07-27T01:06:38.143Z,100894.09
2022-07-27T01:10:41.912Z,100904.88
2022-07-27T01:14:45.149Z,100905.88
2022-07-27T01:18:48.250Z,100899.66
2022-07-27T01:22:52.770Z,100903.13
2022-07-27T01:26:56.222Z,100900.69
2022-07-27T01:30:59.375Z,100905.47
2022-07-27T01:35:02.550Z,100903.44
2022-07-27T01:39:06.991Z,100903.56
2022-07-27T01:43:10.060Z,100906.00
2022-07-27T01:47:14.075Z,100907.78
2022-07-27T01:51:17.989Z,100906.34
2022-07-27T01:55:22.465Z,100899.25
2022-07-27T01:59:25.571Z,100907.56
2022-07-27T02:03:28.591Z,100903.94
2022-07-27T02:07:31.755Z,100912.44
2022-07-27T02:11:53.859Z,100909.31
2022-07-27T02:15:57.341Z,100912.97
2022-07-27T02:20:00.466Z,100917.59
2022-07-27T02:24:03.596Z,100911.75
2022-07-27T02:28:09.111Z,100910.06
2022-07-27T02:32:12.780Z,100915.59
2022-07-27T02:36:16.554Z,100913.06
2022-07-27T02:40:20.391Z,100911.84
2022-07-27T02:44:24.913Z,100906.00
2022-07-27T02:48:28.037Z,100914.44
2022-07-27T02:52:31.070Z,100906.66
2022-07-27T02:56:34.244Z,100916.13
2022-07-27T03:00:38.792Z,100909.81
2022-07-27T03:04:41.989Z,100919.53
2022-07-27T03:08:45.044Z,100909.41
2022-07-27T03:12:48.134Z,100918.50
2022-07-27T03:16:52.511Z,100934.56
2022-07-27T03:20:55.692Z,100928.00
2022-07-27T03:24:58.817Z,100932.66
2022-07-27T03:29:01.911Z,100928.44
2022-07-27T03:33:06.375Z,100931.97
2022-07-27T03:37:09.711Z,100934.09
2022-07-27T03:41:12.729Z,100948.22
2022-07-27T03:45:15.956Z,100940.19
2022-07-27T03:49:20.626Z,100940.81
2022-07-27T03:53:23.849Z,100948.63
2022-07-27T03:57:26.907Z,100943.13
2022-07-27T04:01:30.287Z,100949.00
2022-07-27T04:05:34.848Z,100949.44
2022-07-27T04:09:39.520Z,100955.78
2022-07-27T04:13:46.719Z,100956.00
2022-07-27T04:17:56.265Z,100967.56
2022-07-27T04:22:01.663Z,100961.25
2022-07-27T04:26:05.038Z,100971.38
2022-07-27T04:30:09.974Z,100964.25
2022-07-27T04:34:13.025Z,100969.91
2022-07-27T04:38:17.394Z,100974.97
2022-07-27T04:42:20.490Z,100971.41
2022-07-27T04:46:23.756Z,100979.47
2022-07-27T04:50:27.157Z,100967.63
2022-07-27T04:54:35.867Z,100962.59
2022-07-27T04:58:39.096Z,100974.63
2022-07-27T05:02:43.636Z,100974.66
2022-07-27T05:06:47.148Z,100981.59
2022-07-27T05:10:51.561Z,100982.00
2022-07-27T05:14:54.777Z,100982.19
2022-07-27T05:18:58.159Z,100987.84
2022-07-27T05:23:01.401Z,100987.00
2022-07-27T05:27:06.742Z,100993.25
2022-07-27T05:31:10.180Z,100991.97
2022-07-27T05:35:13.635Z,100983.06
2022-07-27T05:39:17.063Z,100991.94
2022-07-27T05:43:21.749Z,100984.91
2022-07-27T05:47:25.047Z,100986.53
2022-07-27T05:51:28.073Z,100987.00
2022-07-27T05:55:31.217Z,100983.19
2022-07-27T05:59:36.653Z,100985.97
2022-07-27T06:03:39.744Z,100992.72
2022-07-27T06:08:03.346Z,100989.16
2022-07-27T06:12:07.345Z,100988.22
2022-07-27T06:16:12.042Z,100991.88
2022-07-27T06:20:15.199Z,100990.34
2022-07-27T06:24:18.616Z,100989.28
2022-07-27T06:28:21.732Z,100982.50
2022-07-27T06:32:26.187Z,100986.09
2022-07-27T06:36:29.180Z,100983.19
2022-07-27T06:40:32.321Z,100986.91
2022-07-27T06:44:35.379Z,100973.09
2022-07-27T06:48:40.321Z,100973.16
2022-07-27T06:52:43.804Z,100971.00
2022-07-27T06:56:47.218Z,100970.53
2022-07-27T07:00:50.597Z,100970.72
2022-07-27T07:04:55.112Z,100970.41
2022-07-27T07:08:58.250Z,100968.84
2022-07-27T07:13:05.801Z,100971.63
2022-07-27T07:17:09.060Z,100973.91
2022-07-27T07:21:13.476Z,100972.28
2022-07-27T07:25:17.170Z,100966.00
2022-07-27T07:29:20.276Z,100976.84
2022-07-27T07:33:23.376Z,100970.47
2022-07-27T07:37:33.491Z,100974.19
2022-07-27T07:41:37.633Z,100966.25
2022-07-27T07:45:50.026Z,100965.16
2022-07-27T07:49:54.781Z,100976.66
2022-07-27T07:53:59.328Z,100971.19
2022-07-27T07:58:02.573Z,100968.50
2022-07-27T08:02:05.747Z,100970.69
2022-07-27T08:06:08.952Z,100979.16
2022-07-27T08:10:15.176Z,100979.44
2022-07-27T08:14:18.311Z,100982.75
2022-07-27T08:18:22.167Z,100989.28
2022-07-27T08:22:25.461Z,100986.34
2022-07-27T08:26:29.862Z,100983.84
2022-07-27T08:30:33.722Z,100979.88
2022-07-27T08:34:36.978Z,100981.22
2022-07-27T08:38:40.047Z,100989.88
2022-07-27T08:42:44.930Z,100991.84
2022-07-27T08:46:52.948Z,100992.00
2022-07-27T08:50:56.644Z,100990.66
2022-07-27T08:54:59.725Z,100992.81
2022-07-27T08:59:04.425Z,100996.88
2022-07-27T09:03:07.649Z,100982.66
2022-07-27T09:07:10.747Z,100984.88
2022-07-27T09:11:15.583Z,100986.63
2022-07-27T09:15:20.099Z,100977.84
2022-07-27T09:19:23.249Z,100981.88
2022-07-27T09:23:28.239Z,100983.34
2022-07-27T09:27:31.862Z,100980.72
2022-07-27T09:31:42.989Z,100988.94
2022-07-27T09:35:59.940Z,100995.53
2022-07-27T09:40:11.812Z,100994.91
2022-07-27T09:44:32.510Z,100995.75
2022-07-27T09:48:38.267Z,100989.94
2022-07-27T09:52:41.458Z,100991.72
2022-07-27T09:56:46.206Z,100993.19
2022-07-27T10:00:58.555Z,100994.53
2022-07-27T10:05:03.050Z,100997.38
2022-07-27T10:09:06.202Z,100999.44
2022-07-27T10:13:09.419Z,100991.91
2022-07-27T10:17:13.791Z,100991.03
2022-07-27T10:21:18.938Z,100988.75
2022-07-27T10:25:22.839Z,100989.34
2022-07-27T10:29:26.560Z,100987.38
2022-07-27T10:33:43.900Z,101002.09
2022-07-27T10:38:08.036Z,100988.28
2022-07-27T10:42:31.479Z,100997.28
2022-07-27T10:46:38.624Z,100994.84
2022-07-27T10:50:49.165Z,101000.28
2022-07-27T10:54:59.562Z,100978.56
2022-07-27T10:59:03.207Z,100990.63
2022-07-27T11:03:06.791Z,100984.22
2022-07-27T11:07:32.074Z,100984.09
2022-07-27T11:11:35.023Z,100974.66
2022-07-27T11:15:38.246Z,100971.00
2022-07-27T11:19:41.363Z,100975.75
2022-07-27T11:23:52.403Z,100965.53
2022-07-27T11:27:56.985Z,100967.00
2022-07-27T11:32:01.222Z,100957.19
2022-07-27T11:36:07.380Z,100949.69
2022-07-27T11:40:53.331Z,100957.47
2022-07-27T11:44:39.966Z,100949.84
2022-07-27T11:53:11.896Z,100939.81
2022-07-27T11:57:16.968Z,100943.56
2022-07-27T12:01:29.548Z,100938.06
2022-07-27T12:05:32.634Z,100944.19
2022-07-27T12:09:39.096Z,100937.75
2022-07-27T12:13:42.731Z,100940.34
2022-07-27T12:17:48.182Z,100932.50
2022-07-27T12:21:54.585Z,100917.63
2022-07-27T12:25:57.635Z,100926.59
2022-07-27T12:30:09.438Z,100919.66
2022-07-27T12:34:15.173Z,100919.31
2022-07-27T12:38:18.813Z,100922.44
2022-07-27T12:42:22.099Z,100924.69
2022-07-27T12:46:25.364Z,100918.91
2022-07-27T12:50:30.187Z,100928.59
2022-07-27T12:54:33.316Z,100934.38
2022-07-27T12:58:37.391Z,100938.50
2022-07-27T13:02:40.695Z,100928.84
2022-07-27T13:06:45.412Z,100921.53
2022-07-27T13:10:50.407Z,100931.34
2022-07-27T13:14:53.642Z,100932.53
2022-07-27T13:18:56.912Z,100933.88
2022-07-27T13:23:01.399Z,100918.22
2022-07-27T13:27:04.799Z,100926.59
2022-07-27T13:31:08.623Z,100920.72
2022-07-27T13:35:12.770Z,100919.34
2022-07-27T13:39:17.272Z,100912.94
2022-07-27T13:43:20.535Z,100919.91
2022-07-27T13:47:23.655Z,100917.13
2022-07-27T13:51:26.676Z,100916.44
2022-07-27T13:55:31.260Z,100918.44
2022-07-27T13:59:34.317Z,100915.56
2022-07-27T14:03:37.869Z,100900.19
2022-07-27T14:07:41.724Z,100906.63
2022-07-27T14:11:52.710Z,100901.25
2022-07-27T14:15:56.560Z,100907.09
2022-07-27T14:19:59.749Z,100899.34
2022-07-27T14:24:05.771Z,100882.94
2022-07-27T14:28:10.473Z,100884.75
2022-07-27T14:32:13.588Z,100886.94
2022-07-27T14:36:16.693Z,100880.88
2022-07-27T14:40:19.849Z,100871.34
2022-07-27T14:44:24.426Z,100877.25
2022-07-27T14:48:48.874Z,100873.31
2022-07-27T14:52:52.247Z,100872.59
2022-07-27T14:56:55.425Z,100865.44
2022-07-27T15:00:59.962Z,100865.13
2022-07-27T15:05:03.051Z,100866.97
2022-07-27T15:09:06.452Z,100860.88
2022-07-27T15:13:09.707Z,100853.34
2022-07-27T15:17:14.209Z,100854.00
2022-07-27T15:21:17.774Z,100848.41
2022-07-27T15:25:20.884Z,100856.78
2022-07-27T15:29:23.992Z,100848.44
2022-07-27T15:33:29.496Z,100845.28
2022-07-27T15:37:32.572Z,100857.38
2022-07-27T15:41:37.236Z,100846.25
2022-07-27T15:45:42.341Z,100847.66
2022-07-27T15:49:46.855Z,100829.75
2022-07-27T15:53:50.106Z,100837.53
2022-07-27T15:57:53.313Z,100827.00
2022-07-27T16:01:56.517Z,100826.41
2022-07-27T16:06:02.533Z,100834.88
2022-07-27T16:10:06.574Z,100823.56
2022-07-27T16:14:09.697Z,100816.16
2022-07-27T16:18:13.040Z,100828.81
2022-07-27T16:22:17.558Z,100813.69
2022-07-27T16:26:21.418Z,100804.41
2022-07-27T16:30:24.548Z,100818.22
2022-07-27T16:34:28.721Z,100809.56
2022-07-27T16:38:33.268Z,100810.50
2022-07-27T16:42:38.163Z,100809.00
2022-07-27T16:46:42.652Z,100811.78
2022-07-27T16:50:45.820Z,100809.44
2022-07-27T16:54:50.855Z,100812.91
2022-07-27T16:58:54.001Z,100816.13
2022-07-27T17:02:57.398Z,100812.25
2022-07-27T17:07:00.574Z,100817.38
2022-07-27T17:11:06.497Z,100805.75
2022-07-27T17:15:10.711Z,100802.16
2022-07-27T17:19:14.702Z,100798.28
2022-07-27T17:23:18.006Z,100799.22
2022-07-27T17:27:22.860Z,100804.78
2022-07-27T17:31:26.530Z,100797.81
2022-07-27T17:35:29.716Z,100801.25
2022-07-27T17:39:32.792Z,100800.66
2022-07-27T17:43:38.831Z,100799.97
2022-07-27T17:47:42.008Z,100796.13
2022-07-27T17:51:45.149Z,100800.03
2022-07-27T17:55:48.182Z,100791.09
2022-07-27T17:59:52.580Z,100788.88
2022-07-27T18:03:55.764Z,100787.19
2022-07-27T18:07:59.101Z,100783.13
2022-07-27T18:12:02.137Z,100778.25
2022-07-27T18:16:06.749Z,100775.13
2022-07-27T18:20:12.293Z,100780.78
2022-07-27T18:24:15.725Z,100775.03
2022-07-27T18:28:19.337Z,100791.22
2022-07-27T18:32:24.441Z,100791.81
2022-07-27T18:36:27.909Z,100794.44
2022-07-27T18:40:31.069Z,100790.00
2022-07-27T18:44:38.848Z,100784.41
2022-07-27T18:48:44.484Z,100787.75
2022-07-27T18:52:47.611Z,100793.31
2022-07-27T18:56:51.047Z,100797.47
2022-07-27T19:00:54.458Z,100793.25
2022-07-27T19:04:59.679Z,100788.25
2022-07-27T19:09:02.899Z,100790.53
2022-07-27T19:13:06.082Z,100793.88
2022-07-27T19:17:14.606Z,100791.72
2022-07-27T19:21:19.575Z,100789.13
2022-07-27T19:25:23.772Z,100795.25
2022-07-27T19:29:26.864Z,100793.47
2022-07-27T19:33:29.968Z,100798.56
2022-07-27T19:37:34.844Z,100797.75
2022-07-27T19:41:38.162Z,100803.53
2022-07-27T19:45:42.310Z,100803.19
2022-07-27T19:49:46.279Z,100812.72
2022-07-27T19:53:50.862Z,100813.09
2022-07-27T19:57:54.336Z,100819.41
2022-07-27T20:01:58.087Z,100822.53
2022-07-27T20:06:02.315Z,100824.66
2022-07-27T20:10:07.623Z,100819.13
2022-07-27T20:14:11.456Z,100822.06
2022-07-27T20:18:14.801Z,100826.13
2022-07-27T20:22:17.805Z,100828.03
2022-07-27T20:26:22.379Z,100827.69
2022-07-27T20:30:25.967Z,100827.09
2022-07-27T20:34:29.280Z,100828.78
2022-07-27T20:38:32.494Z,100824.78
2022-07-27T20:42:36.963Z,100817.00
2022-07-27T20:46:43.558Z,100827.31
2022-07-27T20:50:46.780Z,100840.41
2022-07-27T20:54:50.581Z,100839.34
2022-07-27T20:58:54.976Z,100835.59
2022-07-27T21:02:58.133Z,100845.16
2022-07-27T21:07:01.234Z,100841.53
2022-07-27T21:11:06.212Z,100845.28
2022-07-27T21:15:13.493Z,100835.16
2022-07-27T21:19:19.463Z,100835.50
2022-07-27T21:23:39.879Z,100837.38
2022-07-27T21:27:42.950Z,100832.94
2022-07-27T21:31:50.799Z,100834.13
2022-07-27T21:35:54.209Z,100840.75
2022-07-27T21:39:57.518Z,100834.00
2022-07-27T21:44:00.794Z,100830.00
2022-07-27T21:48:05.805Z,100837.78
2022-07-27T21:52:08.950Z,100840.28
2022-07-27T21:56:13.661Z,100834.69
2022-07-27T22:00:17.752Z,100833.00
2022-07-27T22:04:22.244Z,100834.25
2022-07-27T22:08:25.292Z,100828.31
2022-07-27T22:12:28.641Z,100839.00
2022-07-27T22:16:31.760Z,100841.28
2022-07-27T22:20:36.543Z,100852.47
2022-07-27T22:24:39.679Z,100857.47
2022-07-27T22:28:42.758Z,100853.56
2022-07-27T22:32:45.787Z,100855.06
2022-07-27T22:36:50.182Z,100864.41
2022-07-27T22:40:54.516Z,100852.78
2022-07-27T22:44:57.560Z,100865.69
2022-07-27T22:49:00.634Z,100866.00
2022-07-27T22:53:05.092Z,100856.66
2022-07-27T22:57:08.815Z,100861.44
2022-07-27T23:01:28.418Z,100848.31
2022-07-27T23:05:35.110Z,100851.81
2022-07-27T23:09:39.668Z,100852.41
2022-07-27T23:13:42.793Z,100854.69
2022-07-27T23:17:46.036Z,100855.16
2022-07-27T23:21:49.284Z,100864.53
2022-07-27T23:25:54.394Z,100846.19
2022-07-27T23:29:58.296Z,100844.16
2022-07-27T23:34:01.374Z,100846.00
2022-07-27T23:38:04.682Z,100854.13
2022-07-27T23:42:09.473Z,100851.28
2022-07-27T23:46:12.568Z,100850.97
2022-07-27T23:50:15.783Z,100843.94
2022-07-27T23:54:18.886Z,100843.81
2022-07-27T23:58:23.363Z,100848.88
